CheckWX is a tool to help pilots better visualize weather data.  It is not intended as a substitute for an official pre-flight weather briefing.

13:02:57 UTC

6R3 METAR
Cleveland Municipal Airport
Cleveland, Texas, USA
Current

28 mins ago

K6R3 221235Z AUTO 17005KT 5SM BR BKN013 BKN024 BKN030 26/25 A2982 RMK AO2 T02560246
Observed
May-22 @ 12:35 UTC
Wind
  • 170° at 5 KTS
Visibility
5 SM
Flight Rules
MVFR
Conditions
Mist
Cloud Levels
  • Broken at 1,300' AGL
  • Broken at 2,400' AGL
  • Broken at 3,000' AGL
Temperature
26°C / 79°F
Dewpoint
25°C / 77°F
Humidity
94%
Altimeter
29.82" Hg
Pressure
1009.82 hPa
Previous

48 mins ago

K6R3 221215Z AUTO 16007KT 5SM BR BKN015 BKN019 BKN029 26/25 A2981 RMK AO2 T02550245
Observed
May-22 @ 12:15 UTC
Wind
  • 160° at 7 KTS
Visibility
5 SM
Flight Rules
MVFR
Conditions
Mist
Cloud Levels
  • Broken at 1,500' AGL
  • Broken at 1,900' AGL
  • Broken at 2,900' AGL
Temperature
26°C / 79°F
Dewpoint
25°C / 77°F
Humidity
94%
Altimeter
29.81" Hg
Pressure
1009.52 hPa
Previous

1 hour ago

K6R3 221155Z AUTO 17006KT 7SM BKN015 OVC019 26/25 A2981 RMK AO2 T02550246 10261 20255
Observed
May-22 @ 11:55 UTC
Wind
  • 170° at 6 KTS
Visibility
7 SM
Flight Rules
MVFR
Cloud Levels
  • Broken at 1,500' AGL
  • Overcast at 1,900' AGL
Temperature
26°C / 79°F
Dewpoint
25°C / 77°F
Humidity
94%
Altimeter
29.81" Hg
Pressure
1009.52 hPa